Air Navigation Services of Czech Republic
Airport: LKBC Updated:  23.09.2020 05:59:24  UTC
 METAR LKBC 23.09. 06:00 ...
METAR LKBC 230600Z AUTO 05001KT 4800 BR NCD 10/08 Q1008=